Allingtown, Connecticut
Current Conditions -  °F | °C
As of 6:53 PM on Thursday 18 Dec 2014 (Local Time) from KHVN Reporting Station
Few Clouds Few Clouds  
Wind Chill: 38°   Ceiling: Unl
Heat Index: 42°   Visibility: 10mi
Dew Point: 27°   Wind: 6mph
Humidity: 55%   Direction: 290°WNW
Pressure: 29.93"   Gusts: NA
Location:  41.2716°N, 72.9666°W
Report Text: KHVN 182353Z 29005KT 10SM FEW034 06/M03 A2993 RMK AO2 SLP133 T00561028 10083 20056 51009
Loading
Personal Weather Stations






























Interactive Weather Map New forecast layout! Learn more

10-Day Weather Forecast

Advertisements
Track Severe Weather on mobile